sensor_id;sensor_type;location;lat;lon;timestamp;temperature;humidity
61979;DHT22;47938;48.176;16.414;2022-12-11T00:01:33;2.60;99.90
61979;DHT22;47938;48.176;16.414;2022-12-11T00:03:58;2.60;99.90
61979;DHT22;47938;48.176;16.414;2022-12-11T00:06:24;2.60;99.90
61979;DHT22;47938;48.176;16.414;2022-12-11T00:08:51;2.50;99.90
61979;DHT22;47938;48.176;16.414;2022-12-11T00:11:17;2.60;99.90
61979;DHT22;47938;48.176;16.414;2022-12-11T00:13:43;2.50;99.90
61979;DHT22;47938;48.176;16.414;2022-12-11T00:16:09;2.50;99.90
61979;DHT22;47938;48.176;16.414;2022-12-11T00:18:35;2.50;99.90
61979;DHT22;47938;48.176;16.414;2022-12-11T00:21:02;2.50;99.90
61979;DHT22;47938;48.176;16.414;2022-12-11T00:23:28;2.50;99.90
61979;DHT22;47938;48.176;16.414;2022-12-11T00:25:54;2.50;99.90
61979;DHT22;47938;48.176;16.414;2022-12-11T00:28:19;2.50;99.90
61979;DHT22;47938;48.176;16.414;2022-12-11T00:30:45;2.60;99.90
61979;DHT22;47938;48.176;16.414;2022-12-11T00:33:12;2.60;99.90
61979;DHT22;47938;48.176;16.414;2022-12-11T00:35:48;2.60;99.90
61979;DHT22;47938;48.176;16.414;2022-12-11T00:38:16;2.60;99.90
61979;DHT22;47938;48.176;16.414;2022-12-11T00:40:42;2.60;99.90
61979;DHT22;47938;48.176;16.414;2022-12-11T00:43:08;2.60;99.90
61979;DHT22;47938;48.176;16.414;2022-12-11T00:45:41;2.60;99.90
61979;DHT22;47938;48.176;16.414;2022-12-11T00:48:07;2.70;99.90
61979;DHT22;47938;48.176;16.414;2022-12-11T00:50:34;2.60;99.90
61979;DHT22;47938;48.176;16.414;2022-12-11T00:52:59;2.60;99.90
61979;DHT22;47938;48.176;16.414;2022-12-11T00:55:25;2.60;99.90
61979;DHT22;47938;48.176;16.414;2022-12-11T00:57:51;2.70;99.90
61979;DHT22;47938;48.176;16.414;2022-12-11T01:00:17;2.70;99.90
61979;DHT22;47938;48.176;16.414;2022-12-11T01:02:42;2.60;99.90
61979;DHT22;47938;48.176;16.414;2022-12-11T01:05:09;2.50;99.90
61979;DHT22;47938;48.176;16.414;2022-12-11T01:07:35;2.60;99.90
61979;DHT22;47938;48.176;16.414;2022-12-11T01:10:01;2.50;96.40
61979;DHT22;47938;48.176;16.414;2022-12-11T01:12:26;2.50;95.70
61979;DHT22;47938;48.176;16.414;2022-12-11T01:14:52;2.50;95.80
61979;DHT22;47938;48.176;16.414;2022-12-11T01:17:17;2.50;93.80
61979;DHT22;47938;48.176;16.414;2022-12-11T01:19:43;2.50;94.60
61979;DHT22;47938;48.176;16.414;2022-12-11T01:22:08;2.40;93.40
61979;DHT22;47938;48.176;16.414;2022-12-11T01:24:34;2.50;95.70
61979;DHT22;47938;48.176;16.414;2022-12-11T01:27:00;2.40;93.80
61979;DHT22;47938;48.176;16.414;2022-12-11T01:29:25;2.40;94.90
61979;DHT22;47938;48.176;16.414;2022-12-11T01:31:51;2.40;95.50
61979;DHT22;47938;48.176;16.414;2022-12-11T01:34:16;2.30;93.50
61979;DHT22;47938;48.176;16.414;2022-12-11T01:36:42;2.30;95.30
61979;DHT22;47938;48.176;16.414;2022-12-11T01:39:08;2.30;95.30
61979;DHT22;47938;48.176;16.414;2022-12-11T01:41:33;2.30;93.80
61979;DHT22;47938;48.176;16.414;2022-12-11T01:44:02;2.20;92.90
61979;DHT22;47938;48.176;16.414;2022-12-11T01:46:30;2.30;92.50
61979;DHT22;47938;48.176;16.414;2022-12-11T01:48:57;2.30;91.90
61979;DHT22;47938;48.176;16.414;2022-12-11T01:51:23;2.30;92.30
61979;DHT22;47938;48.176;16.414;2022-12-11T01:53:56;2.30;91.40
61979;DHT22;47938;48.176;16.414;2022-12-11T01:56:23;2.30;91.00
61979;DHT22;47938;48.176;16.414;2022-12-11T01:58:54;2.30;90.50
61979;DHT22;47938;48.176;16.414;2022-12-11T02:01:27;2.30;89.30
61979;DHT22;47938;48.176;16.414;2022-12-11T02:03:55;2.30;87.10
61979;DHT22;47938;48.176;16.414;2022-12-11T02:06:48;2.30;88.20
61979;DHT22;47938;48.176;16.414;2022-12-11T02:09:20;2.30;85.70
61979;DHT22;47938;48.176;16.414;2022-12-11T02:17:32;2.30;84.30
61979;DHT22;47938;48.176;16.414;2022-12-11T02:25:19;2.20;84.30
61979;DHT22;47938;48.176;16.414;2022-12-11T02:28:07;2.20;83.40
61979;DHT22;47938;48.176;16.414;2022-12-11T02:30:36;2.20;83.50
61979;DHT22;47938;48.176;16.414;2022-12-11T02:33:04;2.20;83.90
61979;DHT22;47938;48.176;16.414;2022-12-11T02:35:38;2.10;83.10
61979;DHT22;47938;48.176;16.414;2022-12-11T02:38:11;2.10;83.40
61979;DHT22;47938;48.176;16.414;2022-12-11T02:40:40;2.10;84.60
61979;DHT22;47938;48.176;16.414;2022-12-11T02:43:09;2.20;84.00
61979;DHT22;47938;48.176;16.414;2022-12-11T02:45:37;2.20;83.60
61979;DHT22;47938;48.176;16.414;2022-12-11T02:48:04;2.10;82.80
61979;DHT22;47938;48.176;16.414;2022-12-11T02:50:32;2.10;82.00
61979;DHT22;47938;48.176;16.414;2022-12-11T02:53:00;2.10;83.10
61979;DHT22;47938;48.176;16.414;2022-12-11T02:55:28;2.10;82.10
61979;DHT22;47938;48.176;16.414;2022-12-11T02:58:06;2.10;82.80
61979;DHT22;47938;48.176;16.414;2022-12-11T03:00:33;2.10;82.80
61979;DHT22;47938;48.176;16.414;2022-12-11T03:02:59;2.00;82.40
61979;DHT22;47938;48.176;16.414;2022-12-11T03:05:24;2.10;83.50
61979;DHT22;47938;48.176;16.414;2022-12-11T03:07:50;2.00;82.80
61979;DHT22;47938;48.176;16.414;2022-12-11T03:10:18;2.00;82.10
61979;DHT22;47938;48.176;16.414;2022-12-11T03:12:47;2.00;82.20
61979;DHT22;47938;48.176;16.414;2022-12-11T03:15:16;2.00;82.10
61979;DHT22;47938;48.176;16.414;2022-12-11T03:17:58;2.00;82.70
61979;DHT22;47938;48.176;16.414;2022-12-11T03:23:41;1.90;80.50
61979;DHT22;47938;48.176;16.414;2022-12-11T03:26:11;1.90;80.50
61979;DHT22;47938;48.176;16.414;2022-12-11T03:28:47;1.90;81.20
61979;DHT22;47938;48.176;16.414;2022-12-11T03:33:53;1.80;79.80
61979;DHT22;47938;48.176;16.414;2022-12-11T03:36:24;1.80;80.90
61979;DHT22;47938;48.176;16.414;2022-12-11T03:38:58;1.80;80.40
61979;DHT22;47938;48.176;16.414;2022-12-11T03:41:27;1.80;80.10
61979;DHT22;47938;48.176;16.414;2022-12-11T03:43:56;1.80;80.30
61979;DHT22;47938;48.176;16.414;2022-12-11T03:46:27;1.80;80.20
61979;DHT22;47938;48.176;16.414;2022-12-11T03:48:57;1.90;79.90
61979;DHT22;47938;48.176;16.414;2022-12-11T03:51:25;1.90;79.50
61979;DHT22;47938;48.176;16.414;2022-12-11T03:53:51;1.90;80.00
61979;DHT22;47938;48.176;16.414;2022-12-11T03:56:17;1.90;79.50
61979;DHT22;47938;48.176;16.414;2022-12-11T03:58:44;1.90;79.60
61979;DHT22;47938;48.176;16.414;2022-12-11T04:01:10;1.90;79.60
61979;DHT22;47938;48.176;16.414;2022-12-11T04:03:36;1.90;79.50
61979;DHT22;47938;48.176;16.414;2022-12-11T04:06:02;1.80;79.00
61979;DHT22;47938;48.176;16.414;2022-12-11T04:08:28;1.90;79.20
61979;DHT22;47938;48.176;16.414;2022-12-11T04:10:53;1.90;79.30
61979;DHT22;47938;48.176;16.414;2022-12-11T04:13:19;1.80;81.00
61979;DHT22;47938;48.176;16.414;2022-12-11T04:15:44;1.80;81.30
61979;DHT22;47938;48.176;16.414;2022-12-11T04:18:10;1.80;81.50
61979;DHT22;47938;48.176;16.414;2022-12-11T04:20:36;1.80;81.60
61979;DHT22;47938;48.176;16.414;2022-12-11T04:23:05;1.80;82.50
61979;DHT22;47938;48.176;16.414;2022-12-11T04:25:31;1.70;83.60
61979;DHT22;47938;48.176;16.414;2022-12-11T04:27:56;1.70;83.70
61979;DHT22;47938;48.176;16.414;2022-12-11T04:30:23;1.70;84.70
61979;DHT22;47938;48.176;16.414;2022-12-11T04:32:50;1.60;87.00
61979;DHT22;47938;48.176;16.414;2022-12-11T04:35:17;1.60;88.40
61979;DHT22;47938;48.176;16.414;2022-12-11T04:37:43;1.60;91.20
61979;DHT22;47938;48.176;16.414;2022-12-11T04:40:11;1.50;91.40
61979;DHT22;47938;48.176;16.414;2022-12-11T04:42:37;1.50;92.50
61979;DHT22;47938;48.176;16.414;2022-12-11T04:45:04;1.50;93.30
61979;DHT22;47938;48.176;16.414;2022-12-11T04:47:29;1.40;93.60
61979;DHT22;47938;48.176;16.414;2022-12-11T04:49:55;1.40;94.10
61979;DHT22;47938;48.176;16.414;2022-12-11T04:52:21;1.40;95.20
61979;DHT22;47938;48.176;16.414;2022-12-11T04:54:47;1.30;95.70
61979;DHT22;47938;48.176;16.414;2022-12-11T04:57:12;1.30;97.40
61979;DHT22;47938;48.176;16.414;2022-12-11T04:59:38;1.30;98.70
61979;DHT22;47938;48.176;16.414;2022-12-11T05:02:04;1.30;99.90
61979;DHT22;47938;48.176;16.414;2022-12-11T05:04:31;1.20;98.60
61979;DHT22;47938;48.176;16.414;2022-12-11T05:06:56;1.20;99.90
61979;DHT22;47938;48.176;16.414;2022-12-11T05:09:22;1.20;99.30
61979;DHT22;47938;48.176;16.414;2022-12-11T05:11:48;1.20;99.90
61979;DHT22;47938;48.176;16.414;2022-12-11T05:14:13;1.20;99.90
61979;DHT22;47938;48.176;16.414;2022-12-11T05:16:39;1.20;99.90
61979;DHT22;47938;48.176;16.414;2022-12-11T05:19:04;1.20;99.90
61979;DHT22;47938;48.176;16.414;2022-12-11T05:21:30;1.20;99.90
61979;DHT22;47938;48.176;16.414;2022-12-11T05:23:56;1.20;99.90
61979;DHT22;47938;48.176;16.414;2022-12-11T05:26:21;1.10;99.90
61979;DHT22;47938;48.176;16.414;2022-12-11T05:28:50;1.00;99.90
61979;DHT22;47938;48.176;16.414;2022-12-11T05:31:18;1.00;99.90
61979;DHT22;47938;48.176;16.414;2022-12-11T05:33:45;0.90;99.90
61979;DHT22;47938;48.176;16.414;2022-12-11T05:36:23;0.90;99.90
61979;DHT22;47938;48.176;16.414;2022-12-11T05:38:50;0.80;99.90
61979;DHT22;47938;48.176;16.414;2022-12-11T05:41:19;0.80;99.90
61979;DHT22;47938;48.176;16.414;2022-12-11T05:43:45;0.80;99.90
61979;DHT22;47938;48.176;16.414;2022-12-11T05:46:22;0.80;99.90
61979;DHT22;47938;48.176;16.414;2022-12-11T05:48:51;0.80;99.90
61979;DHT22;47938;48.176;16.414;2022-12-11T05:51:17;0.80;99.90
61979;DHT22;47938;48.176;16.414;2022-12-11T05:53:44;0.80;99.90
61979;DHT22;47938;48.176;16.414;2022-12-11T05:56:13;0.80;99.90
61979;DHT22;47938;48.176;16.414;2022-12-11T05:58:40;0.80;99.90
61979;DHT22;47938;48.176;16.414;2022-12-11T06:01:07;0.80;99.90
61979;DHT22;47938;48.176;16.414;2022-12-11T06:03:33;0.80;99.90
61979;DHT22;47938;48.176;16.414;2022-12-11T06:06:03;0.90;99.90
61979;DHT22;47938;48.176;16.414;2022-12-11T06:08:30;0.80;99.90
61979;DHT22;47938;48.176;16.414;2022-12-11T06:10:56;0.80;99.90
61979;DHT22;47938;48.176;16.414;2022-12-11T06:13:21;0.80;99.90
61979;DHT22;47938;48.176;16.414;2022-12-11T06:15:47;0.90;99.90
61979;DHT22;47938;48.176;16.414;2022-12-11T06:18:13;0.90;99.90
61979;DHT22;47938;48.176;16.414;2022-12-11T06:20:38;0.90;99.90
61979;DHT22;47938;48.176;16.414;2022-12-11T06:23:04;0.90;99.90
61979;DHT22;47938;48.176;16.414;2022-12-11T06:25:30;0.90;99.90
61979;DHT22;47938;48.176;16.414;2022-12-11T06:27:56;0.90;99.90
61979;DHT22;47938;48.176;16.414;2022-12-11T06:30:22;1.00;99.90
61979;DHT22;47938;48.176;16.414;2022-12-11T06:32:47;1.00;99.90
61979;DHT22;47938;48.176;16.414;2022-12-11T06:35:13;0.90;99.90
61979;DHT22;47938;48.176;16.414;2022-12-11T06:37:39;0.90;99.90
61979;DHT22;47938;48.176;16.414;2022-12-11T06:40:06;1.00;99.50
61979;DHT22;47938;48.176;16.414;2022-12-11T06:42:32;1.00;96.20
61979;DHT22;47938;48.176;16.414;2022-12-11T06:44:58;1.00;95.90
61979;DHT22;47938;48.176;16.414;2022-12-11T06:47:24;1.10;94.10
61979;DHT22;47938;48.176;16.414;2022-12-11T06:49:50;1.20;94.40
61979;DHT22;47938;48.176;16.414;2022-12-11T06:52:16;1.10;93.10
61979;DHT22;47938;48.176;16.414;2022-12-11T06:54:41;1.20;91.20
61979;DHT22;47938;48.176;16.414;2022-12-11T06:57:08;1.20;88.80
61979;DHT22;47938;48.176;16.414;2022-12-11T06:59:34;1.20;88.30
61979;DHT22;47938;48.176;16.414;2022-12-11T07:01:59;1.20;89.00
61979;DHT22;47938;48.176;16.414;2022-12-11T07:04:25;1.20;88.00
61979;DHT22;47938;48.176;16.414;2022-12-11T07:06:50;1.20;85.70
61979;DHT22;47938;48.176;16.414;2022-12-11T07:09:16;1.20;84.30
61979;DHT22;47938;48.176;16.414;2022-12-11T07:11:42;1.20;84.10
61979;DHT22;47938;48.176;16.414;2022-12-11T07:14:08;1.20;86.00
61979;DHT22;47938;48.176;16.414;2022-12-11T07:16:33;1.20;82.60
61979;DHT22;47938;48.176;16.414;2022-12-11T07:18:59;1.20;82.60
61979;DHT22;47938;48.176;16.414;2022-12-11T07:21:24;1.20;83.00
61979;DHT22;47938;48.176;16.414;2022-12-11T07:23:50;1.30;83.30
61979;DHT22;47938;48.176;16.414;2022-12-11T07:26:19;1.20;81.40
61979;DHT22;47938;48.176;16.414;2022-12-11T07:28:45;1.20;82.30
61979;DHT22;47938;48.176;16.414;2022-12-11T07:31:22;1.20;82.00
61979;DHT22;47938;48.176;16.414;2022-12-11T07:33:59;1.30;82.40
61979;DHT22;47938;48.176;16.414;2022-12-11T07:36:26;1.30;83.40
61979;DHT22;47938;48.176;16.414;2022-12-11T07:38:52;1.30;82.50
61979;DHT22;47938;48.176;16.414;2022-12-11T07:41:19;1.30;82.50
61979;DHT22;47938;48.176;16.414;2022-12-11T07:43:44;1.30;82.10
61979;DHT22;47938;48.176;16.414;2022-12-11T07:46:13;1.30;81.70
61979;DHT22;47938;48.176;16.414;2022-12-11T07:48:40;1.30;82.20
61979;DHT22;47938;48.176;16.414;2022-12-11T07:51:18;1.30;81.40
61979;DHT22;47938;48.176;16.414;2022-12-11T07:53:46;1.30;81.30
61979;DHT22;47938;48.176;16.414;2022-12-11T07:56:12;1.30;80.90
61979;DHT22;47938;48.176;16.414;2022-12-11T07:58:39;1.30;81.50
61979;DHT22;47938;48.176;16.414;2022-12-11T08:01:09;1.40;80.30
61979;DHT22;47938;48.176;16.414;2022-12-11T08:03:35;1.30;81.40
61979;DHT22;47938;48.176;16.414;2022-12-11T08:06:00;1.30;80.10
61979;DHT22;47938;48.176;16.414;2022-12-11T08:08:26;1.30;80.70
61979;DHT22;47938;48.176;16.414;2022-12-11T08:10:52;1.30;80.40
61979;DHT22;47938;48.176;16.414;2022-12-11T08:13:17;1.40;81.40
61979;DHT22;47938;48.176;16.414;2022-12-11T08:15:43;1.40;79.70
61979;DHT22;47938;48.176;16.414;2022-12-11T08:18:08;1.40;79.50
61979;DHT22;47938;48.176;16.414;2022-12-11T08:20:37;1.50;79.40
61979;DHT22;47938;48.176;16.414;2022-12-11T08:23:02;1.50;79.10
61979;DHT22;47938;48.176;16.414;2022-12-11T08:25:28;1.40;79.20
61979;DHT22;47938;48.176;16.414;2022-12-11T08:27:53;1.40;78.50
61979;DHT22;47938;48.176;16.414;2022-12-11T08:30:19;1.40;77.50
61979;DHT22;47938;48.176;16.414;2022-12-11T08:32:45;1.40;77.80
61979;DHT22;47938;48.176;16.414;2022-12-11T08:35:10;1.40;77.00
61979;DHT22;47938;48.176;16.414;2022-12-11T08:37:36;1.50;77.60
61979;DHT22;47938;48.176;16.414;2022-12-11T08:40:02;1.50;78.00
61979;DHT22;47938;48.176;16.414;2022-12-11T08:42:27;1.60;77.40
61979;DHT22;47938;48.176;16.414;2022-12-11T08:44:53;1.60;76.60
61979;DHT22;47938;48.176;16.414;2022-12-11T08:47:18;1.50;76.30
61979;DHT22;47938;48.176;16.414;2022-12-11T08:49:44;1.60;76.20
61979;DHT22;47938;48.176;16.414;2022-12-11T08:52:10;1.70;76.70
61979;DHT22;47938;48.176;16.414;2022-12-11T08:54:36;1.80;75.80
61979;DHT22;47938;48.176;16.414;2022-12-11T08:57:02;1.80;75.60
61979;DHT22;47938;48.176;16.414;2022-12-11T08:59:27;1.90;75.60
61979;DHT22;47938;48.176;16.414;2022-12-11T09:01:54;2.00;74.70
61979;DHT22;47938;48.176;16.414;2022-12-11T09:04:20;2.10;74.00
61979;DHT22;47938;48.176;16.414;2022-12-11T09:06:45;2.10;73.10
61979;DHT22;47938;48.176;16.414;2022-12-11T09:09:11;2.20;73.20
61979;DHT22;47938;48.176;16.414;2022-12-11T09:11:37;2.30;71.90
61979;DHT22;47938;48.176;16.414;2022-12-11T09:14:04;2.30;71.50
61979;DHT22;47938;48.176;16.414;2022-12-11T09:16:30;2.20;70.80
61979;DHT22;47938;48.176;16.414;2022-12-11T09:18:57;2.10;71.40
61979;DHT22;47938;48.176;16.414;2022-12-11T09:21:25;2.30;71.20
61979;DHT22;47938;48.176;16.414;2022-12-11T09:23:53;2.20;71.20
61979;DHT22;47938;48.176;16.414;2022-12-11T09:26:19;2.30;69.80
61979;DHT22;47938;48.176;16.414;2022-12-11T09:28:45;2.10;69.10
61979;DHT22;47938;48.176;16.414;2022-12-11T09:31:17;2.00;68.90
61979;DHT22;47938;48.176;16.414;2022-12-11T09:33:43;1.90;69.10
61979;DHT22;47938;48.176;16.414;2022-12-11T09:36:10;1.90;70.00
61979;DHT22;47938;48.176;16.414;2022-12-11T09:38:35;2.10;69.70
61979;DHT22;47938;48.176;16.414;2022-12-11T09:41:07;2.20;69.40
61979;DHT22;47938;48.176;16.414;2022-12-11T09:46:33;2.30;68.90
61979;DHT22;47938;48.176;16.414;2022-12-11T09:49:02;2.30;69.10
61979;DHT22;47938;48.176;16.414;2022-12-11T09:54:04;2.30;69.70
61979;DHT22;47938;48.176;16.414;2022-12-11T09:56:38;2.10;68.50
61979;DHT22;47938;48.176;16.414;2022-12-11T09:59:22;2.10;68.90
61979;DHT22;47938;48.176;16.414;2022-12-11T10:02:01;2.20;69.80
61979;DHT22;47938;48.176;16.414;2022-12-11T10:04:40;2.20;68.30
61979;DHT22;47938;48.176;16.414;2022-12-11T10:10:42;2.30;66.80
61979;DHT22;47938;48.176;16.414;2022-12-11T10:13:21;2.30;67.30
61979;DHT22;47938;48.176;16.414;2022-12-11T10:15:56;2.30;66.60
61979;DHT22;47938;48.176;16.414;2022-12-11T10:18:25;2.20;67.10
61979;DHT22;47938;48.176;16.414;2022-12-11T10:20:53;2.30;67.40
61979;DHT22;47938;48.176;16.414;2022-12-11T10:23:26;2.40;67.10
61979;DHT22;47938;48.176;16.414;2022-12-11T10:26:03;2.60;67.20
61979;DHT22;47938;48.176;16.414;2022-12-11T10:28:29;2.80;66.50
61979;DHT22;47938;48.176;16.414;2022-12-11T10:34:04;2.90;65.40
61979;DHT22;47938;48.176;16.414;2022-12-11T10:36:37;2.80;65.30
61979;DHT22;47938;48.176;16.414;2022-12-11T10:39:16;2.80;64.00
61979;DHT22;47938;48.176;16.414;2022-12-11T10:41:44;2.90;64.00
61979;DHT22;47938;48.176;16.414;2022-12-11T10:44:29;3.00;63.80
61979;DHT22;47938;48.176;16.414;2022-12-11T10:47:13;2.80;62.90
61979;DHT22;47938;48.176;16.414;2022-12-11T10:49:52;2.90;63.40
61979;DHT22;47938;48.176;16.414;2022-12-11T10:57:30;2.70;63.50
61979;DHT22;47938;48.176;16.414;2022-12-11T10:59:57;2.60;63.60
61979;DHT22;47938;48.176;16.414;2022-12-11T11:02:32;2.40;64.10
61979;DHT22;47938;48.176;16.414;2022-12-11T11:05:09;2.40;65.10
61979;DHT22;47938;48.176;16.414;2022-12-11T11:07:35;2.40;64.90
61979;DHT22;47938;48.176;16.414;2022-12-11T11:12:47;2.30;64.20
61979;DHT22;47938;48.176;16.414;2022-12-11T11:15:25;2.20;64.80
61979;DHT22;47938;48.176;16.414;2022-12-11T11:17:53;2.20;65.20
61979;DHT22;47938;48.176;16.414;2022-12-11T11:20:25;2.30;65.10
61979;DHT22;47938;48.176;16.414;2022-12-11T11:23:07;2.10;65.50
61979;DHT22;47938;48.176;16.414;2022-12-11T11:25:35;2.10;65.60
61979;DHT22;47938;48.176;16.414;2022-12-11T11:28:06;2.00;66.20
61979;DHT22;47938;48.176;16.414;2022-12-11T11:30:39;2.10;66.40
61979;DHT22;47938;48.176;16.414;2022-12-11T11:33:14;2.10;66.30
61979;DHT22;47938;48.176;16.414;2022-12-11T11:35:54;2.20;66.60
61979;DHT22;47938;48.176;16.414;2022-12-11T11:38:29;2.20;66.30
61979;DHT22;47938;48.176;16.414;2022-12-11T11:41:19;2.20;66.30
61979;DHT22;47938;48.176;16.414;2022-12-11T11:43:57;2.20;65.50
61979;DHT22;47938;48.176;16.414;2022-12-11T11:54:49;2.20;64.10
61979;DHT22;47938;48.176;16.414;2022-12-11T11:57:34;2.20;63.90
61979;DHT22;47938;48.176;16.414;2022-12-11T12:00:22;2.10;63.90
61979;DHT22;47938;48.176;16.414;2022-12-11T12:02:54;2.10;64.10
61979;DHT22;47938;48.176;16.414;2022-12-11T12:05:34;2.10;64.00
61979;DHT22;47938;48.176;16.414;2022-12-11T12:08:08;2.10;63.50
61979;DHT22;47938;48.176;16.414;2022-12-11T12:10:50;2.00;63.10
61979;DHT22;47938;48.176;16.414;2022-12-11T12:13:28;1.90;63.00
61979;DHT22;47938;48.176;16.414;2022-12-11T12:15:57;1.80;62.90
61979;DHT22;47938;48.176;16.414;2022-12-11T12:24:14;1.70;64.70
61979;DHT22;47938;48.176;16.414;2022-12-11T12:26:53;1.70;64.50
61979;DHT22;47938;48.176;16.414;2022-12-11T12:29:42;1.80;64.90
61979;DHT22;47938;48.176;16.414;2022-12-11T12:32:22;1.80;65.20
61979;DHT22;47938;48.176;16.414;2022-12-11T12:35:08;1.80;64.70
61979;DHT22;47938;48.176;16.414;2022-12-11T12:48:44;1.50;65.20
61979;DHT22;47938;48.176;16.414;2022-12-11T12:51:13;1.50;66.00
61979;DHT22;47938;48.176;16.414;2022-12-11T12:53:50;1.40;64.80
61979;DHT22;47938;48.176;16.414;2022-12-11T12:56:17;1.40;65.00
61979;DHT22;47938;48.176;16.414;2022-12-11T12:58:44;1.40;64.70
61979;DHT22;47938;48.176;16.414;2022-12-11T13:04:03;1.50;64.90
61979;DHT22;47938;48.176;16.414;2022-12-11T13:08:55;1.40;65.20
61979;DHT22;47938;48.176;16.414;2022-12-11T13:11:31;1.40;65.10
61979;DHT22;47938;48.176;16.414;2022-12-11T13:14:21;1.30;65.60
61979;DHT22;47938;48.176;16.414;2022-12-11T13:16:51;1.30;65.50
61979;DHT22;47938;48.176;16.414;2022-12-11T13:22:02;1.20;65.70
61979;DHT22;47938;48.176;16.414;2022-12-11T13:24:30;1.10;65.90
61979;DHT22;47938;48.176;16.414;2022-12-11T13:27:07;1.10;66.30
61979;DHT22;47938;48.176;16.414;2022-12-11T13:29:40;1.10;66.20
61979;DHT22;47938;48.176;16.414;2022-12-11T13:34:45;1.10;66.40
61979;DHT22;47938;48.176;16.414;2022-12-11T13:37:37;1.10;67.50
61979;DHT22;47938;48.176;16.414;2022-12-11T13:40:17;1.10;66.10
61979;DHT22;47938;48.176;16.414;2022-12-11T13:42:56;1.10;66.00
61979;DHT22;47938;48.176;16.414;2022-12-11T13:45:35;1.10;66.00
61979;DHT22;47938;48.176;16.414;2022-12-11T13:48:03;1.10;66.10
61979;DHT22;47938;48.176;16.414;2022-12-11T13:50:34;1.10;66.00
61979;DHT22;47938;48.176;16.414;2022-12-11T13:53:01;1.20;66.10
61979;DHT22;47938;48.176;16.414;2022-12-11T13:55:32;1.30;67.30
61979;DHT22;47938;48.176;16.414;2022-12-11T13:57:59;1.30;65.80
61979;DHT22;47938;48.176;16.414;2022-12-11T14:00:29;1.20;65.30
61979;DHT22;47938;48.176;16.414;2022-12-11T14:02:56;1.20;65.40
61979;DHT22;47938;48.176;16.414;2022-12-11T14:05:23;1.10;65.30
61979;DHT22;47938;48.176;16.414;2022-12-11T14:08:01;1.20;65.50
61979;DHT22;47938;48.176;16.414;2022-12-11T14:10:31;1.20;65.40
61979;DHT22;47938;48.176;16.414;2022-12-11T14:13:04;1.20;64.70
61979;DHT22;47938;48.176;16.414;2022-12-11T14:15:31;1.20;64.00
61979;DHT22;47938;48.176;16.414;2022-12-11T14:17:58;1.20;63.40
61979;DHT22;47938;48.176;16.414;2022-12-11T14:20:27;1.10;63.00
61979;DHT22;47938;48.176;16.414;2022-12-11T14:23:17;1.10;63.50
61979;DHT22;47938;48.176;16.414;2022-12-11T14:25:51;1.20;63.20
61979;DHT22;47938;48.176;16.414;2022-12-11T14:28:17;1.10;62.90
61979;DHT22;47938;48.176;16.414;2022-12-11T14:30:49;1.10;63.50
61979;DHT22;47938;48.176;16.414;2022-12-11T14:33:17;1.10;63.40
61979;DHT22;47938;48.176;16.414;2022-12-11T14:35:46;1.10;63.40
61979;DHT22;47938;48.176;16.414;2022-12-11T14:38:22;1.00;63.60
61979;DHT22;47938;48.176;16.414;2022-12-11T14:40:53;1.10;63.90
61979;DHT22;47938;48.176;16.414;2022-12-11T14:43:31;1.10;64.00
61979;DHT22;47938;48.176;16.414;2022-12-11T14:46:00;1.00;63.80
61979;DHT22;47938;48.176;16.414;2022-12-11T14:48:34;0.90;63.20
61979;DHT22;47938;48.176;16.414;2022-12-11T14:51:03;0.90;63.20
61979;DHT22;47938;48.176;16.414;2022-12-11T14:53:36;0.90;63.30
61979;DHT22;47938;48.176;16.414;2022-12-11T14:56:05;0.90;63.70
61979;DHT22;47938;48.176;16.414;2022-12-11T14:58:36;0.90;64.00
61979;DHT22;47938;48.176;16.414;2022-12-11T15:01:18;0.90;63.90
61979;DHT22;47938;48.176;16.414;2022-12-11T15:03:45;0.90;64.40
61979;DHT22;47938;48.176;16.414;2022-12-11T15:06:32;0.90;64.40
61979;DHT22;47938;48.176;16.414;2022-12-11T15:09:20;0.80;64.80
61979;DHT22;47938;48.176;16.414;2022-12-11T15:11:49;0.90;65.30
61979;DHT22;47938;48.176;16.414;2022-12-11T15:14:17;0.70;65.60
61979;DHT22;47938;48.176;16.414;2022-12-11T15:16:45;0.80;65.70
61979;DHT22;47938;48.176;16.414;2022-12-11T15:19:44;0.80;66.10
61979;DHT22;47938;48.176;16.414;2022-12-11T15:22:14;0.80;66.20
61979;DHT22;47938;48.176;16.414;2022-12-11T15:24:44;0.70;65.90
61979;DHT22;47938;48.176;16.414;2022-12-11T15:29:49;0.70;65.20
61979;DHT22;47938;48.176;16.414;2022-12-11T15:32:17;0.70;65.10
61979;DHT22;47938;48.176;16.414;2022-12-11T15:34:49;0.70;64.80
61979;DHT22;47938;48.176;16.414;2022-12-11T15:37:32;0.70;64.80
61979;DHT22;47938;48.176;16.414;2022-12-11T15:40:00;0.80;64.60
61979;DHT22;47938;48.176;16.414;2022-12-11T15:42:35;0.70;63.90
61979;DHT22;47938;48.176;16.414;2022-12-11T15:45:05;0.70;63.80
61979;DHT22;47938;48.176;16.414;2022-12-11T15:47:31;0.60;63.80
61979;DHT22;47938;48.176;16.414;2022-12-11T15:50:06;0.70;64.70
61979;DHT22;47938;48.176;16.414;2022-12-11T15:52:32;0.70;64.60
61979;DHT22;47938;48.176;16.414;2022-12-11T15:54:58;0.70;64.70
61979;DHT22;47938;48.176;16.414;2022-12-11T15:57:24;0.80;64.80
61979;DHT22;47938;48.176;16.414;2022-12-11T15:59:50;0.60;64.70
61979;DHT22;47938;48.176;16.414;2022-12-11T16:02:17;0.70;65.30
61979;DHT22;47938;48.176;16.414;2022-12-11T16:04:43;0.60;65.60
61979;DHT22;47938;48.176;16.414;2022-12-11T16:07:23;0.70;66.10
61979;DHT22;47938;48.176;16.414;2022-12-11T16:09:50;0.70;66.70
61979;DHT22;47938;48.176;16.414;2022-12-11T16:12:16;0.70;67.10
61979;DHT22;47938;48.176;16.414;2022-12-11T16:14:44;0.70;67.30
61979;DHT22;47938;48.176;16.414;2022-12-11T16:17:13;0.70;67.50
61979;DHT22;47938;48.176;16.414;2022-12-11T16:19:40;0.70;67.20
61979;DHT22;47938;48.176;16.414;2022-12-11T16:22:07;0.70;67.60
61979;DHT22;47938;48.176;16.414;2022-12-11T16:24:33;0.70;67.60
61979;DHT22;47938;48.176;16.414;2022-12-11T16:27:00;0.70;67.70
61979;DHT22;47938;48.176;16.414;2022-12-11T16:29:26;0.70;68.10
61979;DHT22;47938;48.176;16.414;2022-12-11T16:31:52;0.70;68.00
61979;DHT22;47938;48.176;16.414;2022-12-11T16:34:18;0.80;68.00
61979;DHT22;47938;48.176;16.414;2022-12-11T16:36:43;0.70;67.70
61979;DHT22;47938;48.176;16.414;2022-12-11T16:39:10;0.70;67.90
61979;DHT22;47938;48.176;16.414;2022-12-11T16:41:37;0.70;68.10
61979;DHT22;47938;48.176;16.414;2022-12-11T16:44:03;0.70;68.40
61979;DHT22;47938;48.176;16.414;2022-12-11T16:46:29;0.70;69.00
61979;DHT22;47938;48.176;16.414;2022-12-11T16:48:54;0.70;69.20
61979;DHT22;47938;48.176;16.414;2022-12-11T16:51:20;0.70;69.30
61979;DHT22;47938;48.176;16.414;2022-12-11T16:53:46;0.70;69.90
61979;DHT22;47938;48.176;16.414;2022-12-11T16:56:12;0.70;69.90
61979;DHT22;47938;48.176;16.414;2022-12-11T16:58:37;0.70;69.10